Аэропорт: Мурманск. Мурманск

ICAO: ULMM

METAR:
2024-04-22 22:00:00
ULMM 222200Z 11004MPS CAVOK M06/M10 Q1028 R13/250052 NOSIG RMK QFE764
TAF:
2024-04-22 19:50:00
TAF ULMM 221950Z 2221/2321 09003G08MPS 9999 BKN030 
  BECMG 2300/2301 4000 -SHSN BKN016CB 
  TEMPO 2301/2304 1000 SHSN 
  BECMG 2304/2305 9999 NSW 
  BECMG 2308/2310 11005G10MPS 
  TEMPO 2310/2315 3100 -SHSN